createdAt,value
2018-02-20T00:00:30.553Z,6.03
2018-02-20T00:02:59.308Z,6.02
2018-02-20T00:05:27.662Z,6.04
2018-02-20T00:07:56.053Z,5.90
2018-02-20T00:10:24.424Z,5.81
2018-02-20T00:12:52.823Z,5.56
2018-02-20T00:15:21.309Z,5.48
2018-02-20T00:17:49.676Z,5.71
2018-02-20T00:20:18.056Z,6.07
2018-02-20T00:22:46.428Z,5.77
2018-02-20T00:25:14.820Z,5.88
2018-02-20T00:27:43.168Z,5.85
2018-02-20T00:30:11.552Z,5.75
2018-02-20T00:32:39.959Z,5.61
2018-02-20T00:35:08.326Z,5.60
2018-02-20T00:37:36.711Z,5.37
2018-02-20T00:40:05.126Z,5.65
2018-02-20T00:42:33.497Z,5.79
2018-02-20T00:45:02.053Z,5.81
2018-02-20T00:47:30.439Z,5.89
2018-02-20T00:49:59.369Z,5.91
2018-02-20T00:52:28.216Z,5.79
2018-02-20T00:54:56.586Z,5.32
2018-02-20T00:57:24.964Z,5.08
2018-02-20T00:59:53.343Z,5.08
2018-02-20T01:02:21.706Z,5.24
2018-02-20T01:04:50.105Z,5.52
2018-02-20T01:07:18.481Z,5.40
2018-02-20T01:09:46.838Z,5.59
2018-02-20T01:12:15.184Z,5.41
2018-02-20T01:14:43.936Z,5.61
2018-02-20T01:17:12.319Z,5.85
2018-02-20T01:19:40.673Z,5.92
2018-02-20T01:22:09.047Z,5.72
2018-02-20T01:24:37.416Z,5.47
2018-02-20T01:27:05.780Z,5.35
2018-02-20T01:29:34.168Z,5.68
2018-02-20T01:32:02.538Z,5.40
2018-02-20T01:34:31.549Z,5.43
2018-02-20T01:36:59.923Z,5.44
2018-02-20T01:39:28.287Z,5.60
2018-02-20T01:41:56.663Z,5.56
2018-02-20T01:44:25.453Z,5.38
2018-02-20T01:46:54.216Z,5.57
2018-02-20T01:49:22.564Z,5.79
2018-02-20T01:51:50.948Z,5.88
2018-02-20T01:54:19.341Z,5.86
2018-02-20T01:56:47.810Z,5.63
2018-02-20T01:59:16.177Z,5.88
2018-02-20T02:01:44.556Z,5.80
2018-02-20T02:04:12.945Z,6.07
2018-02-20T02:06:41.328Z,5.57
2018-02-20T02:09:09.690Z,5.40
2018-02-20T02:11:38.072Z,5.77
2018-02-20T02:14:06.474Z,5.55
2018-02-20T02:16:34.940Z,5.70
2018-02-20T02:19:03.292Z,5.67
2018-02-20T02:21:31.652Z,5.55
2018-02-20T02:24:00.008Z,5.39
2018-02-20T02:26:28.942Z,5.14
2018-02-20T02:28:57.305Z,5.67
2018-02-20T02:31:25.663Z,5.35
2018-02-20T02:33:54.508Z,5.47
2018-02-20T02:36:22.881Z,5.66
2018-02-20T02:38:51.248Z,5.97
2018-02-20T02:41:19.618Z,6.32
2018-02-20T02:43:47.997Z,6.10
2018-02-20T02:46:16.438Z,5.85
2018-02-20T02:48:44.889Z,5.79
2018-02-20T02:51:13.255Z,5.64
2018-02-20T02:53:41.620Z,5.92
2018-02-20T02:56:09.999Z,6.18
2018-02-20T02:58:38.350Z,6.03
2018-02-20T03:01:07.110Z,5.86
2018-02-20T03:03:35.471Z,5.30
2018-02-20T03:06:03.926Z,5.41
2018-02-20T03:08:32.329Z,5.70
2018-02-20T03:11:00.687Z,5.59
2018-02-20T03:13:29.091Z,5.66
2018-02-20T03:15:57.454Z,5.24
2018-02-20T03:18:25.804Z,5.57
2018-02-20T03:20:54.262Z,5.48
2018-02-20T03:23:23.022Z,5.44
2018-02-20T03:25:52.202Z,5.75
2018-02-20T03:28:20.587Z,5.40
2018-02-20T03:30:48.950Z,5.46
2018-02-20T03:33:17.313Z,5.48
2018-02-20T03:35:45.716Z,5.51
2018-02-20T03:38:14.073Z,5.38
2018-02-20T03:40:42.446Z,5.17
2018-02-20T03:43:10.821Z,5.21
2018-02-20T03:45:39.199Z,5.13
2018-02-20T03:48:07.569Z,5.23
2018-02-20T03:50:36.332Z,5.40
2018-02-20T03:53:04.780Z,4.82
2018-02-20T03:55:33.188Z,4.99
2018-02-20T03:58:01.541Z,4.81
2018-02-20T04:00:30.021Z,4.66
2018-02-20T04:02:58.389Z,4.31
2018-02-20T04:05:26.778Z,4.50
2018-02-20T04:07:55.140Z,4.35
2018-02-20T04:10:23.496Z,4.51
2018-02-20T04:12:51.963Z,4.95
2018-02-20T04:15:20.720Z,4.72
2018-02-20T04:17:49.081Z,4.34
2018-02-20T04:20:17.435Z,4.31
2018-02-20T04:22:45.787Z,4.61
2018-02-20T04:25:14.634Z,4.69
2018-02-20T04:27:43.035Z,4.79
2018-02-20T04:30:11.405Z,4.54
2018-02-20T04:32:39.777Z,4.47
2018-02-20T04:35:08.164Z,4.53
2018-02-20T04:37:36.531Z,4.62
2018-02-20T04:40:05.213Z,4.76
2018-02-20T04:42:33.560Z,4.72
2018-02-20T04:45:01.936Z,5.11
2018-02-20T04:47:30.349Z,4.75
2018-02-20T04:49:58.716Z,4.73
2018-02-20T04:52:27.067Z,4.49
2018-02-20T04:54:55.555Z,4.87
2018-02-20T04:57:23.908Z,4.48
2018-02-20T04:59:52.746Z,4.28
2018-02-20T05:02:21.130Z,4.31
2018-02-20T05:04:49.538Z,4.30
2018-02-20T05:07:18.028Z,4.66
2018-02-20T05:09:46.921Z,4.56
2018-02-20T05:12:15.775Z,4.41
2018-02-20T05:14:44.132Z,4.55
2018-02-20T05:17:12.489Z,4.41
2018-02-20T05:19:40.864Z,4.28
2018-02-20T05:22:09.628Z,4.25
2018-02-20T05:24:38.007Z,4.28
2018-02-20T05:27:06.490Z,4.41
2018-02-20T05:29:35.764Z,3.94
2018-02-20T05:32:04.120Z,4.50
2018-02-20T05:34:32.489Z,4.54
2018-02-20T05:37:00.895Z,4.63
2018-02-20T05:39:29.287Z,4.13
2018-02-20T05:41:57.641Z,4.48
2018-02-20T05:44:26.012Z,4.81
2018-02-20T05:46:54.373Z,4.34
2018-02-20T05:49:22.796Z,4.31
2018-02-20T05:51:51.196Z,4.06
2018-02-20T05:54:19.571Z,4.05
2018-02-20T05:56:47.940Z,4.25
2018-02-20T05:59:16.413Z,4.65
2018-02-20T06:01:44.811Z,4.37
2018-02-20T06:04:13.174Z,4.53
2018-02-20T06:06:41.562Z,4.39
2018-02-20T06:09:09.936Z,4.34
2018-02-20T06:11:38.290Z,4.51
2018-02-20T06:14:06.664Z,4.30
2018-02-20T06:16:35.061Z,4.40
2018-02-20T06:19:03.424Z,3.98
2018-02-20T06:21:31.777Z,4.05
2018-02-20T06:24:00.191Z,3.86
2018-02-20T06:26:28.575Z,3.97
2018-02-20T06:28:56.937Z,4.13
2018-02-20T06:31:25.296Z,4.05
2018-02-20T06:33:53.667Z,4.13
2018-02-20T06:36:22.093Z,4.07
2018-02-20T06:38:50.543Z,4.59
2018-02-20T06:41:19.368Z,4.71
2018-02-20T06:43:47.748Z,4.32
2018-02-20T06:46:16.142Z,4.31
2018-02-20T06:48:44.619Z,4.74
2018-02-20T06:51:13.102Z,4.99
2018-02-20T06:53:41.476Z,5.74
2018-02-20T06:56:09.834Z,5.76
2018-02-20T06:58:38.203Z,5.79
2018-02-20T07:01:06.692Z,6.03
2018-02-20T07:03:35.054Z,6.04
2018-02-20T07:06:03.556Z,6.21
2018-02-20T07:08:31.933Z,6.51
2018-02-20T07:11:00.312Z,6.51
2018-02-20T07:13:28.687Z,7.02
2018-02-20T07:15:57.044Z,7.37
2018-02-20T07:18:25.403Z,7.74
2018-02-20T07:20:54.216Z,8.33
2018-02-20T07:23:22.572Z,9.69
2018-02-20T07:25:50.948Z,9.68
2018-02-20T07:28:19.744Z,10.03
2018-02-20T07:30:48.172Z,9.67
2018-02-20T07:33:16.822Z,10.00
2018-02-20T07:35:45.166Z,9.83
2018-02-20T07:38:13.521Z,9.85
2018-02-20T07:40:41.872Z,10.67
2018-02-20T07:43:10.278Z,10.14
2018-02-20T07:45:38.644Z,10.43
2018-02-20T07:48:07.015Z,10.49
2018-02-20T07:50:35.363Z,10.36
2018-02-20T07:53:03.740Z,9.82
2018-02-20T07:55:32.089Z,9.92
2018-02-20T07:58:00.474Z,9.62
2018-02-20T08:00:29.240Z,9.53
2018-02-20T08:02:57.616Z,10.02
2018-02-20T08:05:26.039Z,8.50
2018-02-20T08:07:54.404Z,8.51
2018-02-20T08:10:23.154Z,8.82
2018-02-20T08:12:51.520Z,9.91
2018-02-20T08:15:19.867Z,9.54
2018-02-20T08:17:48.254Z,9.65
2018-02-20T08:20:16.628Z,9.28
2018-02-20T08:22:45.050Z,9.39
2018-02-20T08:25:13.420Z,9.54
2018-02-20T08:27:41.792Z,10.06
2018-02-20T08:30:10.150Z,10.43
2018-02-20T08:32:38.548Z,9.77
2018-02-20T08:35:06.896Z,9.56
2018-02-20T08:37:35.256Z,9.69
2018-02-20T08:40:04.117Z,10.21
2018-02-20T08:42:32.512Z,10.53
2018-02-20T08:45:00.851Z,10.80
2018-02-20T08:47:29.216Z,11.52
2018-02-20T08:49:57.584Z,12.35
2018-02-20T08:52:25.963Z,11.97
2018-02-20T08:54:54.313Z,12.33
2018-02-20T08:57:23.077Z,12.31
2018-02-20T08:59:51.435Z,12.87
2018-02-20T09:02:19.943Z,12.09
2018-02-20T09:04:48.404Z,12.70
2018-02-20T09:07:16.789Z,13.08
2018-02-20T09:09:45.153Z,13.09
2018-02-20T09:12:13.548Z,13.20
2018-02-20T09:14:41.912Z,12.42
2018-02-20T09:17:10.291Z,12.56
2018-02-20T09:19:38.657Z,12.35
2018-02-20T09:22:07.035Z,12.29
2018-02-20T09:24:35.432Z,12.58
2018-02-20T09:27:04.250Z,13.00
2018-02-20T09:29:32.631Z,13.17
2018-02-20T09:32:01.000Z,13.03
2018-02-20T09:34:29.468Z,12.62
2018-02-20T09:36:57.838Z,12.68
2018-02-20T09:39:26.214Z,12.60
2018-02-20T09:41:54.570Z,11.98
2018-02-20T09:44:22.953Z,11.89
2018-02-20T09:46:51.309Z,11.56
2018-02-20T09:49:20.155Z,11.36
2018-02-20T09:51:48.533Z,11.24
2018-02-20T09:54:17.012Z,10.90
2018-02-20T09:56:45.380Z,10.57
2018-02-20T09:59:13.758Z,11.03
2018-02-20T10:01:42.148Z,11.38
2018-02-20T10:04:10.514Z,11.55
2018-02-20T10:06:38.878Z,11.29
2018-02-20T10:09:07.286Z,11.39
2018-02-20T10:11:35.645Z,11.68
2018-02-20T10:14:04.053Z,11.64
2018-02-20T10:16:32.429Z,11.30
2018-02-20T10:19:00.800Z,11.83
2018-02-20T10:21:29.159Z,11.89
2018-02-20T10:23:57.517Z,12.00
2018-02-20T10:26:25.937Z,12.19
2018-02-20T10:28:54.315Z,12.55
2018-02-20T10:31:22.678Z,12.71
2018-02-20T10:33:51.075Z,13.27
2018-02-20T10:36:19.433Z,13.28
2018-02-20T10:38:47.813Z,13.01
2018-02-20T10:41:16.188Z,13.38
2018-02-20T10:43:44.549Z,13.07
2018-02-20T10:46:12.932Z,13.02
2018-02-20T10:48:41.364Z,13.39
2018-02-20T10:51:09.730Z,14.36
2018-02-20T10:53:38.219Z,14.08
2018-02-20T10:56:06.656Z,14.19
2018-02-20T10:58:35.057Z,14.04
2018-02-20T11:01:03.453Z,13.75
2018-02-20T11:03:31.944Z,13.44
2018-02-20T11:06:00.419Z,13.48
2018-02-20T11:08:28.798Z,13.46
2018-02-20T11:10:57.259Z,13.79
2018-02-20T11:13:25.629Z,12.74
2018-02-20T11:15:54.012Z,13.35
2018-02-20T11:18:22.381Z,13.22
2018-02-20T11:20:50.759Z,12.13
2018-02-20T11:23:19.188Z,11.85
2018-02-20T11:25:47.637Z,12.12
2018-02-20T11:28:16.008Z,11.91
2018-02-20T11:30:44.470Z,12.13
2018-02-20T11:33:12.849Z,12.32
2018-02-20T11:35:41.220Z,12.38
2018-02-20T11:38:09.586Z,12.26
2018-02-20T11:40:38.425Z,11.69
2018-02-20T11:43:06.800Z,11.46
2018-02-20T11:45:35.169Z,11.16
2018-02-20T11:48:03.540Z,10.83
2018-02-20T11:50:31.941Z,10.95
2018-02-20T11:53:00.296Z,10.55
2018-02-20T11:55:28.649Z,9.96
2018-02-20T11:57:57.068Z,9.35
2018-02-20T12:00:25.413Z,9.61
2018-02-20T12:02:53.778Z,9.39
2018-02-20T12:05:22.132Z,9.20
2018-02-20T12:07:50.584Z,8.92
2018-02-20T12:10:18.929Z,8.65
2018-02-20T12:12:47.288Z,8.53
2018-02-20T12:15:16.045Z,8.49
2018-02-20T12:17:44.487Z,8.59
2018-02-20T12:20:12.881Z,8.93
2018-02-20T12:22:41.234Z,8.68
2018-02-20T12:25:09.611Z,8.48
2018-02-20T12:27:37.970Z,8.38
2018-02-20T12:30:06.813Z,8.16
2018-02-20T12:32:35.176Z,8.65
2018-02-20T12:35:03.579Z,8.77
2018-02-20T12:37:31.961Z,9.11
2018-02-20T12:40:00.337Z,8.84
2018-02-20T12:42:29.123Z,8.54
2018-02-20T12:44:57.484Z,8.97
2018-02-20T12:47:25.866Z,8.65
2018-02-20T12:49:54.252Z,8.55
2018-02-20T12:52:22.619Z,8.42
2018-02-20T12:54:50.972Z,8.90
2018-02-20T12:57:19.320Z,9.34
2018-02-20T12:59:47.676Z,8.55
2018-02-20T13:02:16.048Z,8.47
2018-02-20T13:04:44.420Z,8.88
2018-02-20T13:07:12.783Z,9.18
2018-02-20T13:09:41.184Z,9.33
2018-02-20T13:12:09.568Z,9.38
2018-02-20T13:14:37.930Z,8.59
2018-02-20T13:17:06.328Z,8.50
2018-02-20T13:19:34.682Z,8.14
2018-02-20T13:22:03.091Z,8.70
2018-02-20T13:24:31.447Z,8.86
2018-02-20T13:26:59.800Z,8.80
2018-02-20T13:29:28.159Z,8.51
2018-02-20T13:31:56.930Z,8.32
2018-02-20T13:34:25.325Z,8.93
2018-02-20T13:36:54.180Z,8.81
2018-02-20T13:39:22.529Z,8.58
2018-02-20T13:41:50.891Z,8.12
2018-02-20T13:44:19.251Z,8.48
2018-02-20T13:46:48.100Z,8.26
2018-02-20T13:49:16.484Z,8.42
2018-02-20T13:51:44.859Z,8.43
2018-02-20T13:54:13.226Z,8.45
2018-02-20T13:56:41.606Z,8.48
2018-02-20T13:59:10.007Z,8.51
2018-02-20T14:01:38.467Z,8.21
2018-02-20T14:04:06.823Z,8.49
2018-02-20T14:06:35.172Z,8.86
2018-02-20T14:09:03.917Z,8.53
2018-02-20T14:11:32.372Z,9.09
2018-02-20T14:14:00.737Z,8.94
2018-02-20T14:16:29.089Z,8.48
2018-02-20T14:18:57.465Z,8.61
2018-02-20T14:21:25.833Z,8.27
2018-02-20T14:23:54.290Z,8.53
2018-02-20T14:26:22.673Z,8.07
2018-02-20T14:28:51.035Z,7.92
2018-02-20T14:31:19.433Z,7.48
2018-02-20T14:33:47.792Z,7.90
2018-02-20T14:36:16.184Z,8.09
2018-02-20T14:38:44.570Z,8.45
2018-02-20T14:41:12.931Z,7.96
2018-02-20T14:43:41.300Z,8.26
2018-02-20T14:46:09.722Z,8.38
2018-02-20T14:48:38.179Z,7.74
2018-02-20T14:51:06.549Z,7.83
2018-02-20T14:53:34.949Z,8.06
2018-02-20T14:56:03.320Z,7.93
2018-02-20T14:58:31.685Z,8.22
2018-02-20T15:01:00.071Z,7.27
2018-02-20T15:03:28.418Z,7.36
2018-02-20T15:05:56.810Z,7.78
2018-02-20T15:08:25.170Z,7.76
2018-02-20T15:10:53.587Z,7.59
2018-02-20T15:13:21.966Z,7.84
2018-02-20T15:15:50.366Z,7.83
2018-02-20T15:18:18.728Z,7.75
2018-02-20T15:20:47.125Z,7.94
2018-02-20T15:23:15.481Z,7.97
2018-02-20T15:25:43.869Z,8.34
2018-02-20T15:28:12.226Z,8.17
2018-02-20T15:30:40.584Z,7.38
2018-02-20T15:33:09.005Z,7.68
2018-02-20T15:35:37.366Z,7.57
2018-02-20T15:38:05.731Z,7.66
2018-02-20T15:40:34.164Z,7.70
2018-02-20T15:43:02.550Z,7.22
2018-02-20T15:45:31.309Z,7.45
2018-02-20T15:47:59.673Z,7.49
2018-02-20T15:50:28.044Z,7.18
2018-02-20T15:52:56.405Z,7.25
2018-02-20T15:55:24.783Z,7.16
2018-02-20T15:57:53.145Z,7.24
2018-02-20T16:00:21.497Z,7.45
2018-02-20T16:02:49.981Z,7.56
2018-02-20T16:05:18.337Z,7.70
2018-02-20T16:07:46.682Z,7.63
2018-02-20T16:10:15.040Z,7.78
2018-02-20T16:12:44.069Z,7.07
2018-02-20T16:15:12.427Z,7.15
2018-02-20T16:17:40.785Z,7.32
2018-02-20T16:20:09.752Z,7.34
2018-02-20T16:22:38.103Z,7.61
2018-02-20T16:25:06.464Z,7.57
2018-02-20T16:27:34.828Z,7.49
2018-02-20T16:30:03.419Z,7.36
2018-02-20T16:32:31.780Z,8.00
2018-02-20T16:35:00.534Z,7.35
2018-02-20T16:37:28.904Z,7.41
2018-02-20T16:39:57.274Z,7.19
2018-02-20T16:42:25.642Z,7.00
2018-02-20T16:44:54.021Z,7.35
2018-02-20T16:47:22.397Z,7.52
2018-02-20T16:49:50.780Z,7.46
2018-02-20T16:52:19.150Z,7.03
2018-02-20T16:54:47.530Z,6.99
2018-02-20T16:57:15.885Z,7.11
2018-02-20T16:59:44.271Z,7.08
2018-02-20T17:02:12.725Z,7.06
2018-02-20T17:04:41.585Z,7.01
2018-02-20T17:07:09.943Z,7.48
2018-02-20T17:09:38.309Z,7.35
2018-02-20T17:12:06.674Z,7.08
2018-02-20T17:14:35.059Z,7.17
2018-02-20T17:17:03.450Z,7.40
2018-02-20T17:19:31.813Z,7.22
2018-02-20T17:22:00.435Z,7.14
2018-02-20T17:24:28.800Z,6.79
2018-02-20T17:26:57.477Z,7.02
2018-02-20T17:29:25.882Z,7.05
2018-02-20T17:31:54.236Z,6.85
2018-02-20T17:34:22.709Z,6.72
2018-02-20T17:36:51.078Z,6.89
2018-02-20T17:39:19.457Z,6.94
2018-02-20T17:41:47.821Z,7.07
2018-02-20T17:44:16.200Z,7.16
2018-02-20T17:46:44.950Z,7.15
2018-02-20T17:49:13.350Z,6.87
2018-02-20T17:51:41.709Z,6.91
2018-02-20T17:54:10.075Z,7.15
2018-02-20T17:56:38.429Z,7.13
2018-02-20T17:59:07.233Z,6.97
2018-02-20T18:01:35.607Z,7.16
2018-02-20T18:04:03.969Z,7.03
2018-02-20T18:06:32.339Z,6.95
2018-02-20T18:09:00.714Z,7.11
2018-02-20T18:11:29.117Z,6.99
2018-02-20T18:13:57.502Z,7.38
2018-02-20T18:16:25.855Z,6.81
2018-02-20T18:18:54.236Z,6.61
2018-02-20T18:21:22.622Z,6.79
2018-02-20T18:23:50.996Z,7.03
2018-02-20T18:26:19.592Z,7.16
2018-02-20T18:28:48.014Z,6.95
2018-02-20T18:31:16.390Z,7.03
2018-02-20T18:33:44.890Z,6.66
2018-02-20T18:36:14.577Z,6.91
2018-02-20T18:38:42.956Z,6.78
2018-02-20T18:41:11.357Z,7.11
2018-02-20T18:43:40.120Z,6.87
2018-02-20T18:46:08.517Z,7.14
2018-02-20T18:48:37.484Z,7.11
2018-02-20T18:51:05.875Z,6.85
2018-02-20T18:53:34.271Z,7.17
2018-02-20T18:56:03.040Z,6.70
2018-02-20T18:58:31.504Z,6.83
2018-02-20T19:00:59.874Z,6.26
2018-02-20T19:03:28.237Z,6.55
2018-02-20T19:05:56.645Z,6.70
2018-02-20T19:08:25.029Z,6.48
2018-02-20T19:10:55.986Z,6.82
2018-02-20T19:13:24.365Z,6.56
2018-02-20T19:15:52.745Z,6.53
2018-02-20T19:18:21.109Z,6.51
2018-02-20T19:20:49.465Z,6.81
2018-02-20T19:23:17.853Z,6.34
2018-02-20T19:25:46.241Z,6.55
2018-02-20T19:28:14.601Z,6.32
2018-02-20T19:30:42.991Z,6.17
2018-02-20T19:33:11.454Z,6.08
2018-02-20T19:35:39.816Z,5.92
2018-02-20T19:38:08.175Z,6.44
2018-02-20T19:40:36.954Z,6.21
2018-02-20T19:43:05.319Z,5.95
2018-02-20T19:45:33.797Z,5.64
2018-02-20T19:48:02.155Z,5.92
2018-02-20T19:50:30.523Z,6.22
2018-02-20T19:52:58.892Z,5.86
2018-02-20T19:55:27.260Z,5.40
2018-02-20T19:57:55.630Z,5.56
2018-02-20T20:00:24.076Z,5.40
2018-02-20T20:02:52.421Z,5.58
2018-02-20T20:05:20.789Z,5.67
2018-02-20T20:07:49.148Z,5.71
2018-02-20T20:10:17.528Z,5.99
2018-02-20T20:12:46.001Z,5.97
2018-02-20T20:15:14.328Z,5.67
2018-02-20T20:17:42.698Z,5.95
2018-02-20T20:20:11.060Z,6.09
2018-02-20T20:22:39.443Z,5.83
2018-02-20T20:25:07.825Z,5.92
2018-02-20T20:27:36.203Z,5.58
2018-02-20T20:30:04.616Z,5.66
2018-02-20T20:32:32.994Z,5.70
2018-02-20T20:35:01.374Z,5.71
2018-02-20T20:37:29.741Z,5.98
2018-02-20T20:39:58.121Z,5.96
2018-02-20T20:42:26.535Z,5.88
2018-02-20T20:44:55.361Z,6.09
2018-02-20T20:47:23.729Z,5.96
2018-02-20T20:49:52.110Z,5.67
2018-02-20T20:52:20.469Z,6.16
2018-02-20T20:54:49.279Z,6.19
2018-02-20T20:57:17.629Z,6.08
2018-02-20T20:59:46.445Z,6.10
2018-02-20T21:02:14.931Z,5.55
2018-02-20T21:04:43.305Z,5.72
2018-02-20T21:07:11.668Z,5.63
2018-02-20T21:09:40.111Z,5.81
2018-02-20T21:12:08.900Z,5.95
2018-02-20T21:14:37.274Z,5.64
2018-02-20T21:17:05.641Z,5.68
2018-02-20T21:19:34.053Z,5.65
2018-02-20T21:22:02.471Z,5.44
2018-02-20T21:24:30.841Z,5.61
2018-02-20T21:26:59.212Z,5.56
2018-02-20T21:29:27.594Z,5.76
2018-02-20T21:31:57.403Z,5.75
2018-02-20T21:34:25.825Z,5.13
2018-02-20T21:36:54.189Z,5.55
2018-02-20T21:39:22.561Z,5.61
2018-02-20T21:41:50.953Z,5.46
2018-02-20T21:44:19.322Z,5.30
2018-02-20T21:46:47.691Z,5.43
2018-02-20T21:49:16.059Z,5.54
2018-02-20T21:51:44.450Z,5.15
2018-02-20T21:54:12.853Z,4.87
2018-02-20T21:56:41.232Z,5.07
2018-02-20T21:59:09.599Z,5.00
2018-02-20T22:01:37.972Z,5.07
2018-02-20T22:04:06.360Z,5.01
2018-02-20T22:06:34.752Z,5.50
2018-02-20T22:09:03.124Z,5.34
2018-02-20T22:11:31.491Z,5.14
2018-02-20T22:13:59.858Z,5.18
2018-02-20T22:16:28.221Z,5.46
2018-02-20T22:18:56.581Z,5.27
2018-02-20T22:21:25.339Z,5.06
2018-02-20T22:23:53.700Z,4.88
2018-02-20T22:26:22.080Z,4.99
2018-02-20T22:28:50.445Z,5.21
2018-02-20T22:31:18.821Z,5.20
2018-02-20T22:33:47.236Z,5.22
2018-02-20T22:36:15.921Z,5.06
2018-02-20T22:38:44.322Z,5.41
2018-02-20T22:41:13.097Z,5.28
2018-02-20T22:43:41.461Z,5.20
2018-02-20T22:46:09.914Z,4.73
2018-02-20T22:48:38.272Z,4.67
2018-02-20T22:51:06.670Z,4.94
2018-02-20T22:53:35.085Z,4.82
2018-02-20T22:56:03.474Z,5.02
2018-02-20T22:58:31.846Z,5.01
2018-02-20T23:01:00.228Z,4.71
2018-02-20T23:03:28.593Z,4.89
2018-02-20T23:05:56.981Z,4.82
2018-02-20T23:08:25.355Z,4.48
2018-02-20T23:10:53.741Z,4.34
2018-02-20T23:13:22.123Z,4.78
2018-02-20T23:15:50.496Z,4.72
2018-02-20T23:18:18.866Z,4.85
2018-02-20T23:20:47.276Z,4.77
2018-02-20T23:23:16.036Z,4.56
2018-02-20T23:25:44.398Z,4.78
2018-02-20T23:28:12.766Z,4.61
2018-02-20T23:30:41.160Z,4.79
2018-02-20T23:33:09.524Z,4.94
2018-02-20T23:35:37.898Z,4.40
2018-02-20T23:38:06.269Z,4.75
2018-02-20T23:40:34.653Z,4.88
2018-02-20T23:43:03.031Z,4.27
2018-02-20T23:45:31.410Z,4.00
2018-02-20T23:47:59.780Z,4.28
2018-02-20T23:50:28.172Z,4.23
2018-02-20T23:52:56.562Z,4.45
2018-02-20T23:55:24.949Z,4.41
2018-02-20T23:57:53.333Z,4.33
